createdAt,value
2023-05-19T00:29:40.591Z,1024.82
2023-05-19T00:30:13.976Z,1024.82
2023-05-19T00:30:44.616Z,1024.82
2023-05-19T00:31:17.412Z,1024.82
2023-05-19T00:31:48.501Z,1024.82
2023-05-19T00:32:21.137Z,1024.82
2023-05-19T00:32:52.660Z,1024.82
2023-05-19T00:33:25.301Z,1024.82
2023-05-19T00:33:56.469Z,1024.82
2023-05-19T00:34:29.186Z,1024.62
2023-05-19T00:35:01.126Z,1024.62
2023-05-19T00:35:33.130Z,1024.62
2023-05-19T00:36:04.465Z,1024.82
2023-05-19T00:36:37.434Z,1024.82
2023-05-19T00:37:08.597Z,1024.82
2023-05-19T00:37:41.291Z,1024.82
2023-05-19T00:38:12.545Z,1024.92
2023-05-19T00:38:45.350Z,1024.92
2023-05-19T00:39:16.586Z,1024.62
2023-05-19T00:39:49.250Z,1024.62
2023-05-19T00:40:20.855Z,1024.62
2023-05-19T00:40:53.290Z,1024.62
2023-05-19T00:41:24.375Z,1024.92
2023-05-19T00:41:57.182Z,1024.92
2023-05-19T00:42:28.713Z,1024.82
2023-05-19T00:43:01.464Z,1024.82
2023-05-19T00:43:32.423Z,1024.62
2023-05-19T00:44:05.250Z,1024.72
2023-05-19T00:44:36.677Z,1024.72
2023-05-19T00:45:10.185Z,1024.62
2023-05-19T00:45:40.670Z,1024.62
2023-05-19T00:46:13.344Z,1024.82
2023-05-19T00:46:44.748Z,1024.82
2023-05-19T00:47:17.432Z,1024.62
2023-05-19T00:47:48.707Z,1024.62
2023-05-19T00:48:21.420Z,1024.52
2023-05-19T00:48:52.506Z,1024.52
2023-05-19T00:49:25.324Z,1024.62
2023-05-19T00:49:56.568Z,1024.62
2023-05-19T00:50:29.663Z,1024.92
2023-05-19T00:51:00.547Z,1024.92
2023-05-19T00:51:33.126Z,1024.82
2023-05-19T00:52:04.639Z,1024.72
2023-05-19T00:52:37.261Z,1024.72
2023-05-19T00:53:08.561Z,1024.41
2023-05-19T00:53:41.321Z,1024.41
2023-05-19T00:54:12.498Z,1024.72
2023-05-19T00:54:45.417Z,1024.72
2023-05-19T00:55:16.857Z,1024.82
2023-05-19T00:55:49.317Z,1024.82
2023-05-19T00:56:20.568Z,1024.62
2023-05-19T00:56:53.371Z,1024.62
2023-05-19T00:57:24.645Z,1024.62
2023-05-19T00:57:57.236Z,1024.62
2023-05-19T00:58:28.507Z,1024.62
2023-05-19T00:59:01.383Z,1024.62
2023-05-19T00:59:32.686Z,1024.41
2023-05-19T01:00:06.624Z,1024.52
2023-05-19T01:00:36.600Z,1024.52
2023-05-19T01:01:09.537Z,1024.62
2023-05-19T01:01:40.454Z,1024.62
2023-05-19T01:02:13.340Z,1024.72
2023-05-19T01:02:44.757Z,1024.72
2023-05-19T01:03:17.452Z,1024.52
2023-05-19T01:03:48.599Z,1024.52
2023-05-19T01:04:21.312Z,1024.72
2023-05-19T01:04:52.651Z,1024.72
2023-05-19T01:05:25.545Z,1024.62
2023-05-19T01:05:56.578Z,1024.62
2023-05-19T01:06:30.313Z,1024.72
2023-05-19T01:07:00.713Z,1024.72
2023-05-19T01:07:33.351Z,1024.62
2023-05-19T01:08:04.521Z,1024.52
2023-05-19T01:08:37.513Z,1024.52
2023-05-19T01:09:08.473Z,1024.41
2023-05-19T01:09:41.349Z,1024.41
2023-05-19T01:10:12.831Z,1024.72
2023-05-19T01:10:45.587Z,1024.72
2023-05-19T01:11:16.593Z,1024.72
2023-05-19T01:11:49.391Z,1024.72
2023-05-19T01:12:20.679Z,1024.52
2023-05-19T01:12:53.288Z,1024.52
2023-05-19T01:13:24.671Z,1024.62
2023-05-19T01:13:57.428Z,1024.62
2023-05-19T01:14:28.657Z,1024.52
2023-05-19T01:15:02.958Z,1024.52
2023-05-19T01:15:32.777Z,1024.52
2023-05-19T01:16:05.526Z,1024.52
2023-05-19T01:16:36.498Z,1024.52
2023-05-19T01:17:09.319Z,1024.52
2023-05-19T01:17:40.739Z,1024.52
2023-05-19T01:18:13.505Z,1024.31
2023-05-19T01:18:44.621Z,1024.31
2023-05-19T01:19:17.363Z,1024.41
2023-05-19T01:19:48.673Z,1024.41
2023-05-19T01:20:21.587Z,1024.52
2023-05-19T01:20:52.574Z,1024.52
2023-05-19T01:21:25.312Z,1024.21
2023-05-19T01:21:56.444Z,1024.21
2023-05-19T01:22:29.465Z,1024.31
2023-05-19T01:23:00.862Z,1024.31
2023-05-19T01:23:33.469Z,1024.52
2023-05-19T01:24:04.585Z,1024.41
2023-05-19T01:24:38.464Z,1024.41
2023-05-19T01:25:08.834Z,1024.52
2023-05-19T01:25:41.241Z,1024.52
2023-05-19T01:26:12.556Z,1024.21
2023-05-19T01:26:45.437Z,1024.21
2023-05-19T01:27:16.669Z,1024.31
2023-05-19T01:27:49.393Z,1024.31
2023-05-19T01:28:20.559Z,1024.41
2023-05-19T01:28:53.278Z,1024.41
2023-05-19T02:56:21.370Z,1024.01
2023-05-19T02:56:52.528Z,1024.01
2023-05-19T02:57:25.401Z,1024.11
2023-05-19T02:57:56.711Z,1024.11
2023-05-19T02:58:29.211Z,1024.01
2023-05-19T02:59:00.660Z,1024.01
2023-05-19T02:59:33.476Z,1024.01
2023-05-19T03:00:06.125Z,1024.11
2023-05-19T03:00:20.665Z,1024.11
2023-05-19T03:00:52.702Z,1024.11
2023-05-19T03:01:24.575Z,1024.11
2023-05-19T03:01:56.650Z,1024.11
2023-05-19T03:02:28.805Z,1024.01
2023-05-19T03:03:00.623Z,1024.01
2023-05-19T03:03:32.761Z,1024.01
2023-05-19T03:04:04.635Z,1023.94
2023-05-19T03:04:36.441Z,1023.94
2023-05-19T03:05:09.698Z,1024.11
2023-05-19T03:05:40.652Z,1024.11
2023-05-19T03:06:13.464Z,1024.11
2023-05-19T03:06:44.552Z,1024.11
2023-05-19T03:07:17.451Z,1024.01
2023-05-19T03:07:48.616Z,1024.01
2023-05-19T03:08:21.503Z,1024.01
2023-05-19T03:08:52.661Z,1024.01
2023-05-19T03:09:25.331Z,1023.84
2023-05-19T03:09:56.631Z,1023.84
2023-05-19T03:10:29.898Z,1024.01
2023-05-19T03:11:00.663Z,1024.01
2023-05-19T03:11:33.528Z,1024.01
2023-05-19T03:12:04.591Z,1024.01
2023-05-19T03:12:20.756Z,1024.01
2023-05-19T03:12:52.531Z,1024.01
2023-05-19T03:13:24.584Z,1023.84
2023-05-19T03:13:57.482Z,1023.84
2023-05-19T03:14:28.577Z,1024.11
2023-05-19T03:15:02.859Z,1024.11
2023-05-19T03:15:32.764Z,1024.01
2023-05-19T03:16:05.627Z,1024.01
2023-05-19T03:16:36.631Z,1024.01
2023-05-19T03:17:09.422Z,1023.94
2023-05-19T03:17:40.630Z,1023.94
2023-05-19T03:18:13.330Z,1024.01
2023-05-19T03:18:44.612Z,1024.01
2023-05-19T03:19:17.442Z,1023.94
2023-05-19T03:19:48.686Z,1023.94
2023-05-19T03:20:21.517Z,1024.21
2023-05-19T03:20:52.556Z,1024.21
2023-05-19T03:21:25.485Z,1024.01
2023-05-19T03:21:56.551Z,1024.01
2023-05-19T03:22:29.577Z,1024.01
2023-05-19T03:23:00.634Z,1024.01
2023-05-19T03:23:33.524Z,1024.11
2023-05-19T03:24:04.512Z,1024.11
2023-05-19T03:24:20.638Z,1024.11
2023-05-19T03:24:52.556Z,1024.11
2023-05-19T03:25:24.882Z,1024.11
2023-05-19T03:25:56.638Z,1024.11
2023-05-19T03:26:28.710Z,1024.11
2023-05-19T03:27:00.608Z,1024.11
2023-05-19T03:27:32.655Z,1024.01
2023-05-19T03:28:04.665Z,1024.01
2023-05-19T03:28:36.591Z,1024.01
2023-05-19T03:29:09.292Z,1024.21
2023-05-19T03:29:40.638Z,1024.21
2023-05-19T03:30:14.252Z,1024.01
2023-05-19T03:30:44.808Z,1024.01
2023-05-19T03:31:17.681Z,1024.01
2023-05-19T03:31:48.489Z,1024.01
2023-05-19T03:32:21.547Z,1024.11
2023-05-19T03:32:52.741Z,1024.11
2023-05-19T03:33:25.754Z,1024.01
2023-05-19T03:33:56.505Z,1024.01
2023-05-19T03:34:29.447Z,1024.01
2023-05-19T03:35:01.097Z,1024.01
2023-05-19T03:35:33.235Z,1024.21
2023-05-19T03:36:04.444Z,1024.01
2023-05-19T03:36:37.551Z,1024.01
2023-05-19T03:37:08.784Z,1024.01
2023-05-19T03:37:41.759Z,1024.01
2023-05-19T03:38:12.863Z,1024.21
2023-05-19T03:38:45.606Z,1024.21
2023-05-19T03:39:16.992Z,1024.31
2023-05-19T03:39:49.509Z,1024.31
2023-05-19T03:40:21.360Z,1024.01
2023-05-19T03:40:53.840Z,1024.01
2023-05-19T03:41:24.813Z,1024.21
2023-05-19T03:41:57.607Z,1024.21
2023-05-19T03:42:28.880Z,1024.21
2023-05-19T03:43:01.844Z,1024.21
2023-05-19T03:43:32.884Z,1024.01
2023-05-19T03:44:05.587Z,1024.11
2023-05-19T03:44:37.048Z,1024.11
2023-05-19T03:45:10.794Z,1024.21
2023-05-19T03:45:40.965Z,1024.21
2023-05-19T03:46:13.615Z,1024.31
2023-05-19T03:46:44.847Z,1024.31
2023-05-19T03:47:17.629Z,1024.11
2023-05-19T03:47:48.935Z,1024.11
2023-05-19T03:48:21.648Z,1024.31
2023-05-19T03:48:52.780Z,1024.31
2023-05-19T03:49:25.656Z,1024.21
2023-05-19T03:49:56.870Z,1024.21
2023-05-19T03:50:30.016Z,1024.11
2023-05-19T03:51:00.887Z,1024.11
2023-05-19T03:51:33.761Z,1024.31
2023-05-19T03:52:04.851Z,1024.11
2023-05-19T03:52:37.612Z,1024.11
2023-05-19T03:53:08.842Z,1024.31
2023-05-19T03:53:41.748Z,1024.31
2023-05-19T03:54:12.762Z,1024.41
2023-05-19T03:54:45.598Z,1024.41
2023-05-19T03:55:17.110Z,1024.31
2023-05-19T03:55:49.798Z,1024.31
2023-05-19T03:56:20.905Z,1024.11
2023-05-19T03:56:53.727Z,1024.11
2023-05-19T03:57:24.909Z,1024.31
2023-05-19T03:57:57.739Z,1024.31
2023-05-19T03:58:28.936Z,1024.11
2023-05-19T03:59:01.870Z,1024.11
2023-05-19T03:59:32.941Z,1024.52
2023-05-19T04:00:06.911Z,1024.31
2023-05-19T04:00:36.776Z,1024.31
2023-05-19T04:01:09.804Z,1024.41
2023-05-19T04:01:40.861Z,1024.41
2023-05-19T04:02:13.753Z,1024.41
2023-05-19T04:02:45.030Z,1024.41
2023-05-19T04:03:17.694Z,1024.41
2023-05-19T04:03:48.747Z,1024.41
2023-05-19T04:04:21.840Z,1024.52
2023-05-19T04:04:53.016Z,1024.52
2023-05-19T04:05:25.878Z,1024.41
2023-05-19T04:05:56.965Z,1024.41
2023-05-19T04:06:30.636Z,1024.41
2023-05-19T04:07:00.721Z,1024.41
2023-05-19T04:07:33.617Z,1024.41
2023-05-19T04:08:04.952Z,1024.21
2023-05-19T04:08:37.904Z,1024.21
2023-05-19T04:09:08.906Z,1024.31
2023-05-19T04:09:41.599Z,1024.31
2023-05-19T04:10:13.196Z,1024.31
2023-05-19T04:10:45.495Z,1024.31
2023-05-19T04:11:16.890Z,1024.52
2023-05-19T04:11:49.502Z,1024.52
2023-05-19T04:12:21.090Z,1024.31
2023-05-19T04:12:53.796Z,1024.31
2023-05-19T04:13:24.904Z,1024.41
2023-05-19T04:13:57.598Z,1024.41
2023-05-19T04:14:28.960Z,1024.31
2023-05-19T04:15:03.150Z,1024.31
2023-05-19T04:15:33.055Z,1024.31
2023-05-19T04:16:05.932Z,1024.41
2023-05-19T04:16:36.694Z,1024.41
2023-05-19T04:17:09.722Z,1024.31
2023-05-19T04:17:40.905Z,1024.31
2023-05-19T04:18:13.956Z,1024.41
2023-05-19T04:18:44.889Z,1024.41
2023-05-19T04:19:17.691Z,1024.31
2023-05-19T04:19:48.897Z,1024.31
2023-05-19T04:20:21.877Z,1024.31
2023-05-19T04:20:52.847Z,1024.31
2023-05-19T04:21:25.752Z,1024.21
2023-05-19T04:21:56.812Z,1024.21
2023-05-19T04:22:29.624Z,1024.41
2023-05-19T04:23:01.060Z,1024.41
2023-05-19T04:23:33.833Z,1024.31
2023-05-19T04:24:04.839Z,1024.31
2023-05-19T04:24:37.547Z,1024.31
2023-05-19T04:25:09.183Z,1024.31
2023-05-19T04:25:41.601Z,1024.31
2023-05-19T04:26:12.715Z,1024.31
2023-05-19T04:26:45.736Z,1024.31
2023-05-19T04:27:16.616Z,1024.31
2023-05-19T04:27:49.614Z,1024.31
2023-05-19T04:28:20.954Z,1024.52
2023-05-19T04:28:53.760Z,1024.52
2023-05-19T04:29:24.759Z,1024.41
2023-05-19T04:29:57.596Z,1024.41
2023-05-19T04:30:30.030Z,1024.31
2023-05-19T04:31:01.654Z,1024.31
2023-05-19T04:31:32.882Z,1024.41
2023-05-19T04:32:05.899Z,1024.41
2023-05-19T04:32:36.991Z,1024.41
2023-05-19T04:33:09.833Z,1024.31
2023-05-19T04:33:40.890Z,1024.31
2023-05-19T04:34:13.869Z,1024.52
2023-05-19T04:34:44.833Z,1024.52
2023-05-19T04:35:17.940Z,1024.21
2023-05-19T04:35:48.861Z,1024.21
2023-05-19T04:36:21.639Z,1024.41
2023-05-19T04:36:53.606Z,1024.41
2023-05-19T04:37:25.803Z,1024.52
2023-05-19T04:37:56.818Z,1024.52
2023-05-19T04:38:29.712Z,1024.31
2023-05-19T04:39:00.936Z,1024.31
2023-05-19T04:39:33.703Z,1024.41
2023-05-19T04:40:04.996Z,1024.52
2023-05-19T04:40:20.983Z,1024.52
2023-05-19T04:40:53.175Z,1024.52
2023-05-19T04:41:24.812Z,1024.52
2023-05-19T04:41:57.002Z,1024.52
2023-05-19T04:42:28.773Z,1024.41
2023-05-19T04:43:01.871Z,1024.41
2023-05-19T04:43:33.044Z,1024.41
2023-05-19T04:44:06.064Z,1024.21
2023-05-19T04:44:36.863Z,1024.21
2023-05-19T04:45:10.658Z,1024.31
2023-05-19T04:45:41.009Z,1024.31
2023-05-19T04:46:14.173Z,1024.41
2023-05-19T04:46:44.905Z,1024.41
2023-05-19T04:47:17.777Z,1024.31
2023-05-19T04:47:48.891Z,1024.31
2023-05-19T04:48:21.815Z,1024.41
2023-05-19T04:48:52.960Z,1024.41
2023-05-19T04:49:25.670Z,1024.41
2023-05-19T04:49:56.879Z,1024.41
2023-05-19T04:50:30.155Z,1024.21
2023-05-19T04:51:01.010Z,1024.21
2023-05-19T04:51:33.668Z,1024.41
2023-05-19T04:52:05.004Z,1024.31
2023-05-19T04:52:38.376Z,1024.31
2023-05-19T04:53:09.075Z,1024.62
2023-05-19T04:53:41.560Z,1024.62
2023-05-19T04:54:12.965Z,1024.41
2023-05-19T04:54:45.783Z,1024.41
2023-05-19T04:55:17.271Z,1024.41
2023-05-19T04:55:49.698Z,1024.41
2023-05-19T04:56:20.968Z,1024.41
2023-05-19T04:56:53.689Z,1024.41
2023-05-19T04:57:24.867Z,1024.31
2023-05-19T04:57:57.686Z,1024.31
2023-05-19T04:58:29.105Z,1024.41
2023-05-19T04:59:01.589Z,1024.41
2023-05-19T04:59:32.922Z,1024.62
2023-05-19T05:00:07.218Z,1024.31
2023-05-19T05:00:36.655Z,1024.31
2023-05-19T05:01:09.684Z,1024.21
2023-05-19T05:01:41.002Z,1024.21
2023-05-19T05:02:13.807Z,1024.31
2023-05-19T05:02:45.007Z,1024.31
2023-05-19T05:03:17.806Z,1024.62
2023-05-19T05:03:48.988Z,1024.62
2023-05-19T05:04:21.541Z,1024.41
2023-05-19T05:04:52.761Z,1024.41
2023-05-19T05:05:25.910Z,1024.41
2023-05-19T05:05:56.889Z,1024.41
2023-05-19T05:06:29.502Z,1024.62
2023-05-19T05:07:01.013Z,1024.62
2023-05-19T05:07:33.625Z,1024.41
2023-05-19T05:08:05.014Z,1024.52
2023-05-19T05:08:37.743Z,1024.52
2023-05-19T05:09:08.858Z,1024.41
2023-05-19T05:09:41.722Z,1024.41
2023-05-19T05:10:13.332Z,1024.41
2023-05-19T05:10:45.560Z,1024.41
2023-05-19T05:11:17.058Z,1024.41
2023-05-19T05:11:49.674Z,1024.41
2023-05-19T05:12:21.045Z,1024.41
2023-05-19T05:12:54.492Z,1024.41
2023-05-19T05:13:24.920Z,1024.41
2023-05-19T05:13:57.844Z,1024.41
2023-05-19T05:14:28.723Z,1024.31
2023-05-19T05:15:03.271Z,1024.31
2023-05-19T05:15:33.120Z,1024.52
2023-05-19T05:16:05.817Z,1024.31
2023-05-19T05:16:36.828Z,1024.31
2023-05-19T05:17:09.520Z,1024.21
2023-05-19T05:17:40.933Z,1024.21
2023-05-19T05:18:13.498Z,1024.31
2023-05-19T05:18:45.187Z,1024.31
2023-05-19T05:19:18.148Z,1024.41
2023-05-19T05:19:48.717Z,1024.41
2023-05-19T05:20:22.008Z,1024.11
2023-05-19T05:20:52.802Z,1024.11
2023-05-19T05:21:25.659Z,1024.01
2023-05-19T05:21:56.841Z,1024.01
2023-05-19T05:22:29.677Z,1024.41
2023-05-19T05:23:01.058Z,1024.41
2023-05-19T05:23:33.659Z,1024.21
2023-05-19T05:24:04.862Z,1024.41
2023-05-19T05:24:53.077Z,1024.41
2023-05-19T05:25:25.251Z,1024.21
2023-05-19T05:25:56.796Z,1024.21
2023-05-19T05:26:29.731Z,1024.41
2023-05-19T05:27:00.918Z,1024.41
2023-05-19T05:27:33.482Z,1024.21
2023-05-19T05:28:05.004Z,1024.21
2023-05-19T05:28:37.619Z,1024.21
2023-05-19T05:29:08.989Z,1024.21
2023-05-19T05:29:41.649Z,1024.21
2023-05-19T05:30:13.725Z,1024.21
2023-05-19T05:30:45.870Z,1024.21
2023-05-19T05:31:16.879Z,1024.41
2023-05-19T05:31:49.721Z,1024.41
2023-05-19T05:32:20.997Z,1024.31
2023-05-19T05:32:53.769Z,1024.31
2023-05-19T05:33:25.225Z,1024.31
2023-05-19T05:33:57.474Z,1024.31
2023-05-19T05:34:29.070Z,1024.41
2023-05-19T05:35:01.958Z,1024.41
2023-05-19T05:35:33.146Z,1024.52
2023-05-19T05:36:05.826Z,1024.31
2023-05-19T05:36:37.315Z,1024.31
2023-05-19T05:37:10.052Z,1024.21
2023-05-19T05:37:40.762Z,1024.21
2023-05-19T05:38:13.850Z,1024.21
2023-05-19T05:38:44.876Z,1024.21
2023-05-19T05:39:17.678Z,1024.31
2023-05-19T05:39:48.988Z,1024.31
2023-05-19T05:40:22.145Z,1024.21
2023-05-19T05:40:53.180Z,1024.21
2023-05-19T05:41:25.701Z,1024.11
2023-05-19T05:41:57.014Z,1024.11
2023-05-19T05:42:30.000Z,1024.21
2023-05-19T05:43:01.617Z,1024.21
2023-05-19T05:43:34.026Z,1024.31
2023-05-19T05:44:05.209Z,1024.52
2023-05-19T05:44:40.652Z,1024.52
2023-05-19T05:45:10.281Z,1024.01
2023-05-19T05:45:42.986Z,1024.01
2023-05-19T05:46:13.144Z,1024.21
2023-05-19T05:46:46.073Z,1024.21
2023-05-19T05:47:17.025Z,1024.31
2023-05-19T05:47:49.986Z,1024.31
2023-05-19T05:48:20.919Z,1024.31
2023-05-19T05:48:54.091Z,1024.31
2023-05-19T05:49:25.091Z,1024.21
2023-05-19T05:49:58.139Z,1024.21
2023-05-19T05:50:29.737Z,1024.41
2023-05-19T05:51:02.759Z,1024.41
2023-05-19T05:51:33.248Z,1024.31
2023-05-19T05:52:04.407Z,1024.31
2023-05-19T05:52:21.667Z,1024.11
2023-05-19T05:52:53.496Z,1024.11
2023-05-19T05:53:25.594Z,1024.31
2023-05-19T05:53:57.929Z,1024.31
2023-05-19T05:54:30.511Z,1024.41
2023-05-19T05:55:02.212Z,1024.41
2023-05-19T05:55:34.823Z,1024.11
2023-05-19T05:56:05.484Z,1024.31
2023-05-19T05:56:38.521Z,1024.31
2023-05-19T05:57:09.634Z,1024.31
2023-05-19T05:57:42.671Z,1024.31
2023-05-19T05:58:13.573Z,1024.31
2023-05-19T05:58:46.505Z,1024.31
2023-05-19T05:59:17.819Z,1024.31
2023-05-19T05:59:50.432Z,1024.31
2023-05-19T06:00:23.460Z,1024.31
2023-05-19T06:00:54.681Z,1024.31
2023-05-19T06:01:25.773Z,1024.21
2023-05-19T06:01:58.570Z,1024.21
2023-05-19T06:02:30.982Z,1024.41
2023-05-19T06:03:03.144Z,1024.41
2023-05-19T06:03:33.180Z,1024.21
2023-05-19T06:04:06.109Z,1023.94
2023-05-19T06:04:37.285Z,1023.94
2023-05-19T06:05:10.519Z,1024.21
2023-05-19T06:05:41.415Z,1024.21
2023-05-19T06:06:14.150Z,1024.31
2023-05-19T06:06:45.160Z,1024.31
2023-05-19T06:07:18.282Z,1024.31
2023-05-19T06:07:49.778Z,1024.31
2023-05-19T06:08:22.258Z,1024.31
2023-05-19T06:08:53.614Z,1024.31
2023-05-19T06:09:26.190Z,1024.31
2023-05-19T06:09:57.276Z,1024.31
2023-05-19T06:10:30.623Z,1024.41
2023-05-19T06:11:01.570Z,1024.41
2023-05-19T06:11:33.975Z,1024.31
2023-05-19T06:12:04.943Z,1024.11
2023-05-19T06:12:37.681Z,1024.11
2023-05-19T06:13:09.077Z,1024.11
2023-05-19T06:13:41.977Z,1024.11
2023-05-19T06:14:13.821Z,1024.21
2023-05-19T06:14:46.794Z,1024.21
2023-05-19T06:15:19.716Z,1024.11
2023-05-19T06:15:50.717Z,1024.11
2023-05-19T06:16:21.831Z,1024.21
2023-05-19T06:16:54.165Z,1024.21
2023-05-19T06:17:25.241Z,1024.11
2023-05-19T06:17:58.241Z,1024.11
2023-05-19T06:18:29.311Z,1024.11
2023-05-19T06:19:02.859Z,1024.11
2023-05-19T06:19:33.514Z,1024.31
2023-05-19T06:20:06.236Z,1024.11
2023-05-19T06:20:37.314Z,1024.11
2023-05-19T06:21:09.934Z,1024.11
2023-05-19T06:21:41.226Z,1024.11
2023-05-19T06:22:14.116Z,1024.21
2023-05-19T06:22:45.147Z,1024.21
2023-05-19T06:23:18.032Z,1024.31
2023-05-19T06:23:49.229Z,1024.31
2023-05-19T06:24:22.258Z,1024.11
2023-05-19T06:24:53.164Z,1024.11
2023-05-19T06:25:26.283Z,1024.21
2023-05-19T06:25:57.353Z,1024.21
2023-05-19T06:26:29.871Z,1024.41
2023-05-19T06:27:01.235Z,1024.41
2023-05-19T06:27:34.873Z,1024.41
2023-05-19T06:28:05.227Z,1024.01
2023-05-19T06:28:39.059Z,1024.01
2023-05-19T06:29:09.259Z,1024.21
2023-05-19T06:29:42.123Z,1024.21
2023-05-19T06:30:14.309Z,1024.21
2023-05-19T06:30:46.454Z,1024.21
2023-05-19T06:31:17.370Z,1024.31
2023-05-19T06:31:50.325Z,1024.31
2023-05-19T06:32:21.091Z,1024.11
2023-05-19T06:32:54.001Z,1024.11
2023-05-19T06:33:28.163Z,1024.21
2023-05-19T06:34:00.150Z,1024.21
2023-05-19T06:34:29.200Z,1024.21
2023-05-19T06:35:02.659Z,1024.21
2023-05-19T06:35:33.377Z,1024.41
2023-05-19T06:36:06.105Z,1024.31
2023-05-19T06:36:37.415Z,1024.31
2023-05-19T06:37:10.090Z,1024.01
2023-05-19T06:37:41.140Z,1024.01
2023-05-19T06:38:14.098Z,1024.01
2023-05-19T06:38:46.037Z,1024.01
2023-05-19T06:39:18.384Z,1024.01
2023-05-19T06:39:49.247Z,1024.01
2023-05-19T06:40:22.361Z,1024.21
2023-05-19T06:40:53.316Z,1024.21
2023-05-19T06:41:26.167Z,1024.31
2023-05-19T06:41:57.269Z,1024.31
2023-05-19T06:42:30.290Z,1024.11
2023-05-19T06:43:01.389Z,1024.11
2023-05-19T06:43:33.885Z,1024.31
2023-05-19T06:44:05.224Z,1024.21
2023-05-19T06:44:39.457Z,1024.21
2023-05-19T06:45:10.398Z,1024.11
2023-05-19T06:45:42.404Z,1024.11
2023-05-19T06:46:13.387Z,1024.11
2023-05-19T06:46:46.359Z,1024.11
2023-05-19T06:47:17.577Z,1024.21
2023-05-19T06:47:50.054Z,1024.21
2023-05-19T06:48:21.522Z,1024.21
2023-05-19T06:48:54.011Z,1024.21
2023-05-19T06:49:25.389Z,1024.31
2023-05-19T06:49:58.092Z,1024.31
2023-05-19T06:50:29.914Z,1024.01
2023-05-19T06:51:02.078Z,1024.01
2023-05-19T06:51:33.370Z,1024.31
2023-05-19T06:52:06.246Z,1024.31
2023-05-19T06:52:37.241Z,1024.31
2023-05-19T06:53:09.937Z,1024.21
2023-05-19T06:53:41.286Z,1024.21
2023-05-19T06:54:14.278Z,1024.21
2023-05-19T06:54:45.171Z,1024.21
2023-05-19T06:55:18.354Z,1024.21
2023-05-19T06:55:58.797Z,1024.21
2023-05-19T06:56:22.161Z,1024.31
2023-05-19T06:56:53.466Z,1024.31
2023-05-19T06:57:26.076Z,1024.21
2023-05-19T06:57:57.186Z,1024.21
2023-05-19T06:58:30.244Z,1024.31
2023-05-19T06:59:01.620Z,1024.31
2023-05-19T06:59:34.079Z,1024.31
2023-05-19T07:00:07.475Z,1024.01
2023-05-19T07:00:38.505Z,1024.01
2023-05-19T07:01:09.332Z,1024.21
2023-05-19T07:01:42.133Z,1024.21
2023-05-19T07:02:13.806Z,1024.01
2023-05-19T07:02:46.917Z,1024.01
2023-05-19T07:03:17.347Z,1024.21
2023-05-19T07:03:50.121Z,1024.21
2023-05-19T07:04:21.369Z,1024.11
2023-05-19T07:04:54.049Z,1024.11
2023-05-19T07:05:25.663Z,1024.01
2023-05-19T07:05:58.199Z,1024.01
2023-05-19T07:06:29.155Z,1024.31
2023-05-19T07:07:02.150Z,1024.31
2023-05-19T07:07:33.397Z,1024.01
2023-05-19T07:08:06.062Z,1024.41
2023-05-19T07:08:37.311Z,1024.41
2023-05-19T07:09:10.208Z,1024.21
2023-05-19T07:09:41.225Z,1024.21
2023-05-19T07:10:14.384Z,1024.11
2023-05-19T07:10:45.338Z,1024.11
2023-05-19T07:11:18.291Z,1024.01
2023-05-19T07:11:49.247Z,1024.01
2023-05-19T07:12:22.039Z,1024.11
2023-05-19T07:12:53.280Z,1024.11
2023-05-19T07:13:27.446Z,1024.01
2023-05-19T07:13:57.252Z,1024.01
2023-05-19T07:14:30.140Z,1023.84
2023-05-19T07:15:03.297Z,1023.84
2023-05-19T07:15:34.275Z,1024.01
2023-05-19T07:16:05.347Z,1024.11
2023-05-19T07:16:39.112Z,1024.11
2023-05-19T07:17:09.319Z,1024.01
2023-05-19T07:17:42.383Z,1024.01
2023-05-19T07:18:13.460Z,1024.01
2023-05-19T07:18:46.140Z,1024.01
2023-05-19T07:19:17.381Z,1024.21
2023-05-19T07:19:50.242Z,1024.21
2023-05-19T07:20:21.371Z,1024.21
2023-05-19T07:20:54.166Z,1024.21
2023-05-19T07:21:25.236Z,1024.11
2023-05-19T07:21:58.086Z,1024.11
2023-05-19T07:22:29.157Z,1023.94
2023-05-19T07:23:02.396Z,1023.94
2023-05-19T07:23:33.362Z,1024.01
2023-05-19T07:24:06.261Z,1024.01
2023-05-19T07:24:37.858Z,1024.01
2023-05-19T07:25:10.335Z,1024.11
2023-05-19T07:25:41.293Z,1024.11
2023-05-19T07:26:14.043Z,1024.01
2023-05-19T07:26:45.235Z,1024.01
2023-05-19T07:27:18.097Z,1024.01
2023-05-19T07:27:49.377Z,1024.01
2023-05-19T07:28:21.931Z,1024.11
2023-05-19T07:28:53.302Z,1024.11
2023-05-19T07:29:26.197Z,1024.11
2023-05-19T07:29:57.191Z,1024.11
2023-05-19T07:30:31.323Z,1023.94
2023-05-19T07:31:01.337Z,1023.94
2023-05-19T07:31:33.953Z,1024.11
2023-05-19T07:32:05.185Z,1024.11
2023-05-19T07:32:21.635Z,1024.11
2023-05-19T07:32:53.259Z,1024.11
2023-05-19T07:33:25.217Z,1023.94
2023-05-19T07:33:57.434Z,1023.94
2023-05-19T07:34:29.243Z,1023.94
2023-05-19T07:35:02.300Z,1023.94
2023-05-19T07:35:33.274Z,1023.94
2023-05-19T07:36:06.191Z,1024.11
2023-05-19T07:36:37.453Z,1024.11
2023-05-19T07:37:09.940Z,1024.01
2023-05-19T07:37:41.266Z,1024.01
2023-05-19T07:38:13.994Z,1023.94
2023-05-19T07:38:45.230Z,1023.94
2023-05-19T07:39:18.093Z,1023.74
2023-05-19T07:39:49.415Z,1023.74
2023-05-19T07:40:22.311Z,1023.74
2023-05-19T07:40:53.236Z,1023.74
2023-05-19T07:41:26.140Z,1024.01
2023-05-19T07:41:57.162Z,1024.01
2023-05-19T07:42:30.291Z,1023.84
2023-05-19T07:43:01.384Z,1023.84
2023-05-19T07:43:34.269Z,1023.74
2023-05-19T07:44:05.222Z,1023.84
2023-05-19T07:44:38.069Z,1023.84
2023-05-19T07:45:10.455Z,1024.01
2023-05-19T07:45:42.230Z,1024.01
2023-05-19T07:46:13.154Z,1023.74
2023-05-19T07:46:46.165Z,1023.74
2023-05-19T07:47:17.391Z,1023.94
2023-05-19T07:47:50.210Z,1023.94
2023-05-19T07:48:21.274Z,1023.84
2023-05-19T07:48:54.115Z,1023.84
2023-05-19T07:49:25.201Z,1023.74
2023-05-19T07:49:58.062Z,1023.74
2023-05-19T07:50:29.645Z,1023.84
2023-05-19T07:51:02.014Z,1023.84
2023-05-19T07:51:33.264Z,1023.84
2023-05-19T07:52:06.163Z,1023.74
2023-05-19T07:52:37.335Z,1023.74
2023-05-19T07:53:09.986Z,1023.74
2023-05-19T07:53:41.267Z,1023.74
2023-05-19T07:54:14.352Z,1023.74
2023-05-19T07:54:45.422Z,1023.74
2023-05-19T07:55:18.280Z,1023.64
2023-05-19T07:55:49.190Z,1023.64
2023-05-19T07:56:22.012Z,1023.84
2023-05-19T07:56:53.149Z,1023.84
2023-05-19T07:57:26.125Z,1024.01
2023-05-19T07:57:57.292Z,1024.01
2023-05-19T07:58:30.033Z,1023.74
2023-05-19T07:59:01.255Z,1023.74
2023-05-19T07:59:34.089Z,1023.74
2023-05-19T08:00:06.851Z,1023.84
2023-05-19T08:00:40.203Z,1023.84
2023-05-19T08:01:09.223Z,1023.94
2023-05-19T08:01:42.279Z,1023.94
2023-05-19T08:02:13.236Z,1023.84
2023-05-19T08:02:46.207Z,1023.84
2023-05-19T08:03:17.580Z,1023.74
2023-05-19T08:03:50.477Z,1023.74
2023-05-19T08:04:21.330Z,1023.94
2023-05-19T08:04:54.031Z,1023.94
2023-05-19T08:05:25.638Z,1023.74
2023-05-19T08:05:57.994Z,1023.74
2023-05-19T08:06:29.120Z,1023.94
2023-05-19T08:07:02.300Z,1023.94
2023-05-19T08:07:33.473Z,1024.01
2023-05-19T08:08:06.259Z,1023.74
2023-05-19T08:08:37.405Z,1023.74
2023-05-19T08:09:10.267Z,1023.74
2023-05-19T08:09:41.208Z,1023.74
2023-05-19T08:10:14.538Z,1023.74
2023-05-19T08:10:45.364Z,1023.74
2023-05-19T08:11:18.182Z,1023.74
2023-05-19T08:11:49.401Z,1023.74
2023-05-19T08:12:22.157Z,1023.84
2023-05-19T08:12:53.273Z,1023.84
2023-05-19T08:13:25.923Z,1023.94
2023-05-19T08:13:57.289Z,1023.94
2023-05-19T08:14:31.034Z,1023.84
2023-05-19T08:15:02.638Z,1023.84
2023-05-19T08:15:34.482Z,1023.64
2023-05-19T08:16:05.433Z,1023.74
2023-05-19T08:16:41.207Z,1023.74
2023-05-19T08:17:09.372Z,1023.84
2023-05-19T08:17:42.128Z,1023.84
2023-05-19T08:18:14.005Z,1023.64
2023-05-19T08:18:45.919Z,1023.64
2023-05-19T08:19:17.251Z,1023.53
2023-05-19T08:19:50.171Z,1023.53
2023-05-19T08:20:21.572Z,1023.64
2023-05-19T08:20:54.339Z,1023.64
2023-05-19T08:21:25.552Z,1023.64
2023-05-19T08:21:59.170Z,1023.64